createdAt,value
2018-09-30T00:01:52.145Z,2.67
2018-09-30T00:04:23.255Z,2.77
2018-09-30T00:06:54.128Z,2.57
2018-09-30T00:09:30.607Z,2.90
2018-09-30T00:12:02.892Z,2.80
2018-09-30T00:14:33.563Z,2.90
2018-09-30T00:17:04.330Z,2.60
2018-09-30T00:19:35.079Z,2.57
2018-09-30T00:22:06.721Z,2.50
2018-09-30T00:24:42.682Z,2.57
2018-09-30T00:27:20.915Z,2.20
2018-09-30T00:29:51.883Z,2.23
2018-09-30T00:32:22.518Z,2.20
2018-09-30T00:34:53.882Z,2.40
2018-09-30T00:37:24.696Z,2.13
2018-09-30T00:39:55.588Z,2.60
2018-09-30T00:42:26.527Z,3.13
2018-09-30T00:44:57.745Z,2.70
2018-09-30T00:47:28.822Z,2.23
2018-09-30T00:49:59.611Z,3.10
2018-09-30T00:52:30.234Z,2.30
2018-09-30T00:55:02.102Z,2.50
2018-09-30T00:57:32.886Z,2.40
2018-09-30T01:00:03.510Z,2.83
2018-09-30T01:02:34.346Z,2.60
2018-09-30T01:05:05.812Z,3.10
2018-09-30T01:07:36.647Z,2.40
2018-09-30T01:10:08.091Z,2.30
2018-09-30T01:12:38.826Z,2.60
2018-09-30T01:15:09.597Z,2.60
2018-09-30T01:17:40.750Z,2.30
2018-09-30T01:20:11.716Z,2.67
2018-09-30T01:22:42.414Z,2.53
2018-09-30T01:25:13.196Z,2.73
2018-09-30T01:27:43.909Z,2.30
2018-09-30T01:30:14.960Z,2.03
2018-09-30T01:32:45.674Z,2.43
2018-09-30T01:35:16.318Z,2.50
2018-09-30T01:37:46.958Z,2.80
2018-09-30T01:40:17.699Z,2.40
2018-09-30T01:42:48.699Z,2.20
2018-09-30T01:45:19.655Z,2.60
2018-09-30T01:47:50.558Z,2.67
2018-09-30T01:50:21.276Z,2.30
2018-09-30T01:52:54.665Z,2.40
2018-09-30T01:55:25.295Z,2.17
2018-09-30T01:57:56.551Z,2.53
2018-09-30T02:00:28.645Z,2.00
2018-09-30T02:02:59.444Z,2.70
2018-09-30T02:05:30.217Z,2.10
2018-09-30T02:08:01.252Z,2.33
2018-09-30T02:10:31.963Z,1.90
2018-09-30T02:13:02.599Z,2.03
2018-09-30T02:15:33.991Z,2.07
2018-09-30T02:18:04.803Z,1.77
2018-09-30T02:20:35.627Z,1.70
2018-09-30T02:23:06.392Z,1.77
2018-09-30T02:25:37.269Z,1.87
2018-09-30T02:28:07.844Z,2.10
2018-09-30T02:30:38.589Z,1.90
2018-09-30T02:33:09.500Z,2.00
2018-09-30T02:35:40.195Z,1.90
2018-09-30T02:38:11.375Z,1.90
2018-09-30T02:40:42.071Z,1.50
2018-09-30T02:43:12.977Z,2.03
2018-09-30T02:45:43.730Z,1.93
2018-09-30T02:48:14.511Z,1.93
2018-09-30T02:50:45.128Z,2.43
2018-09-30T02:53:16.468Z,1.63
2018-09-30T02:55:47.802Z,1.67
2018-09-30T02:58:20.008Z,1.53
2018-09-30T03:00:51.059Z,1.40
2018-09-30T03:03:21.916Z,1.60
2018-09-30T03:05:52.662Z,1.60
2018-09-30T03:08:28.502Z,1.40
2018-09-30T03:10:59.525Z,1.70
2018-09-30T03:13:30.405Z,1.40
2018-09-30T03:16:00.966Z,1.40
2018-09-30T03:18:32.711Z,1.30
2018-09-30T03:21:03.565Z,1.57
2018-09-30T03:23:34.613Z,1.83
2018-09-30T03:26:05.292Z,1.63
2018-09-30T03:28:35.927Z,1.60
2018-09-30T03:31:06.611Z,1.57
2018-09-30T03:33:37.412Z,1.50
2018-09-30T03:36:09.731Z,1.50
2018-09-30T03:38:40.423Z,1.30
2018-09-30T03:41:11.237Z,1.57
2018-09-30T03:43:42.137Z,1.67
2018-09-30T03:46:12.897Z,1.80
2018-09-30T03:48:43.519Z,1.53
2018-09-30T03:51:14.174Z,1.40
2018-09-30T03:53:44.889Z,1.60
2018-09-30T03:56:15.701Z,1.50
2018-09-30T03:58:46.475Z,1.53
2018-09-30T04:01:17.303Z,1.47
2018-09-30T04:03:47.885Z,2.47
2018-09-30T04:06:18.811Z,1.47
2018-09-30T04:08:49.545Z,1.53
2018-09-30T04:11:21.071Z,1.70
2018-09-30T04:13:51.822Z,1.47
2018-09-30T04:16:22.763Z,1.50
2018-09-30T04:18:53.571Z,1.67
2018-09-30T04:21:24.152Z,1.70
2018-09-30T04:23:59.208Z,1.30
2018-09-30T04:26:30.022Z,1.40
2018-09-30T04:29:01.220Z,1.60
2018-09-30T04:31:32.040Z,1.40
2018-09-30T04:34:03.175Z,1.70
2018-09-30T04:36:34.872Z,1.90
2018-09-30T04:39:08.400Z,2.03
2018-09-30T04:41:39.362Z,1.40
2018-09-30T04:44:10.057Z,1.77
2018-09-30T04:46:41.409Z,1.47
2018-09-30T04:49:12.203Z,1.60
2018-09-30T04:51:42.842Z,1.43
2018-09-30T04:54:13.825Z,1.90
2018-09-30T04:56:44.743Z,1.53
2018-09-30T04:59:15.597Z,1.40
2018-09-30T05:01:46.183Z,1.60
2018-09-30T05:04:24.591Z,1.47
2018-09-30T05:06:55.424Z,1.30
2018-09-30T05:09:26.136Z,1.50
2018-09-30T05:11:56.824Z,1.60
2018-09-30T05:14:28.206Z,1.27
2018-09-30T05:16:59.024Z,1.40
2018-09-30T05:19:29.866Z,1.73
2018-09-30T05:22:00.798Z,1.70
2018-09-30T05:24:31.835Z,1.63
2018-09-30T05:27:02.927Z,1.60
2018-09-30T05:29:34.173Z,1.60
2018-09-30T05:32:05.112Z,1.50
2018-09-30T05:34:35.798Z,1.20
2018-09-30T05:37:07.242Z,1.63
2018-09-30T05:39:38.314Z,1.60
2018-09-30T05:42:09.163Z,1.40
2018-09-30T05:44:39.949Z,1.80
2018-09-30T05:47:10.577Z,1.40
2018-09-30T05:49:41.368Z,1.63
2018-09-30T05:52:11.991Z,1.63
2018-09-30T05:54:42.718Z,1.50
2018-09-30T05:57:13.457Z,1.20
2018-09-30T05:59:44.142Z,1.20
2018-09-30T06:02:14.740Z,1.63
2018-09-30T06:04:45.591Z,1.90
2018-09-30T06:07:16.344Z,1.47
2018-09-30T06:09:47.042Z,1.50
2018-09-30T06:12:17.661Z,2.17
2018-09-30T06:14:48.231Z,1.70
2018-09-30T06:17:18.947Z,1.70
2018-09-30T06:19:49.763Z,1.53
2018-09-30T06:22:20.559Z,2.30
2018-09-30T06:24:51.452Z,1.70
2018-09-30T06:27:22.363Z,1.60
2018-09-30T06:29:53.279Z,2.40
2018-09-30T06:32:24.075Z,1.90
2018-09-30T06:34:55.082Z,1.90
2018-09-30T06:37:25.927Z,1.53
2018-09-30T06:39:56.512Z,1.90
2018-09-30T06:42:27.520Z,1.70
2018-09-30T06:44:58.516Z,1.77
2018-09-30T06:47:29.373Z,1.90
2018-09-30T06:49:59.992Z,2.37
2018-09-30T06:52:30.596Z,1.90
2018-09-30T06:55:01.549Z,1.60
2018-09-30T06:57:32.271Z,1.90
2018-09-30T07:00:03.436Z,1.90
2018-09-30T07:02:34.588Z,1.43
2018-09-30T07:05:05.355Z,1.33
2018-09-30T07:07:35.980Z,1.60
2018-09-30T07:10:08.096Z,1.60
2018-09-30T07:12:38.720Z,1.67
2018-09-30T07:15:09.555Z,1.80
2018-09-30T07:17:40.166Z,1.50
2018-09-30T07:20:11.323Z,1.57
2018-09-30T07:22:42.257Z,1.47
2018-09-30T07:25:13.074Z,1.50
2018-09-30T07:27:43.871Z,1.53
2018-09-30T07:30:14.646Z,1.40
2018-09-30T07:32:45.679Z,1.57
2018-09-30T07:35:16.861Z,1.70
2018-09-30T07:37:47.690Z,1.37
2018-09-30T07:40:18.369Z,1.30
2018-09-30T07:42:49.169Z,1.30
2018-09-30T07:45:19.906Z,1.80
2018-09-30T07:47:50.564Z,1.83
2018-09-30T07:50:21.870Z,2.03
2018-09-30T07:52:52.506Z,1.57
2018-09-30T07:55:23.508Z,1.40
2018-09-30T07:57:54.454Z,1.80
2018-09-30T08:00:25.041Z,1.80
2018-09-30T08:02:55.770Z,1.47
2018-09-30T08:05:26.450Z,1.87
2018-09-30T08:07:57.328Z,1.40
2018-09-30T08:10:28.054Z,1.60
2018-09-30T08:12:58.720Z,1.73
2018-09-30T08:15:29.810Z,1.70
2018-09-30T08:18:00.470Z,1.50
2018-09-30T08:20:31.189Z,1.50
2018-09-30T08:23:03.227Z,1.90
2018-09-30T08:25:33.746Z,1.50
2018-09-30T08:28:04.665Z,1.50
2018-09-30T08:30:35.199Z,1.67
2018-09-30T08:33:06.506Z,1.50
2018-09-30T08:35:37.112Z,1.40
2018-09-30T08:38:13.034Z,1.30
2018-09-30T08:40:48.837Z,1.60
2018-09-30T08:43:19.546Z,1.73
2018-09-30T08:45:51.055Z,1.20
2018-09-30T08:48:21.817Z,1.80
2018-09-30T08:50:54.462Z,2.77
2018-09-30T08:53:25.564Z,1.50
2018-09-30T08:55:56.816Z,3.10
2018-09-30T08:58:28.626Z,1.67
2018-09-30T09:00:59.258Z,1.90
2018-09-30T09:03:29.896Z,1.93
2018-09-30T09:06:00.758Z,2.20
2018-09-30T09:08:31.767Z,2.03
2018-09-30T09:11:02.492Z,2.07
2018-09-30T09:13:33.551Z,1.87
2018-09-30T09:16:04.277Z,2.20
2018-09-30T09:18:34.915Z,1.90
2018-09-30T09:21:06.377Z,1.80
2018-09-30T09:23:37.232Z,2.17
2018-09-30T09:26:08.317Z,2.00
2018-09-30T09:28:38.961Z,2.20
2018-09-30T09:31:16.690Z,2.53
2018-09-30T09:33:47.474Z,1.63
2018-09-30T09:36:18.162Z,2.27
2018-09-30T09:38:49.014Z,2.13
2018-09-30T09:41:19.711Z,2.00
2018-09-30T09:43:50.358Z,2.30
2018-09-30T09:46:20.874Z,2.63
2018-09-30T09:48:51.812Z,2.33
2018-09-30T09:51:29.127Z,2.70
2018-09-30T09:54:00.055Z,2.83
2018-09-30T09:56:30.758Z,3.07
2018-09-30T09:59:01.550Z,2.80
2018-09-30T10:01:32.825Z,2.97
2018-09-30T10:04:03.657Z,2.83
2018-09-30T10:06:34.417Z,3.13
2018-09-30T10:09:06.188Z,3.73
2018-09-30T10:11:36.910Z,3.30
2018-09-30T10:14:07.801Z,2.87
2018-09-30T10:16:38.556Z,3.00
2018-09-30T10:19:09.757Z,3.07
2018-09-30T10:21:40.996Z,3.50
2018-09-30T10:24:12.230Z,3.15
2018-09-30T10:26:43.460Z,3.30
2018-09-30T10:29:15.241Z,3.85
2018-09-30T10:31:46.536Z,3.60
2018-09-30T10:34:17.727Z,3.20
2018-09-30T10:36:48.867Z,3.47
2018-09-30T10:39:20.214Z,3.70
2018-09-30T10:41:51.469Z,3.62
2018-09-30T10:44:22.630Z,3.50
2018-09-30T10:46:54.135Z,3.22
2018-09-30T10:49:25.823Z,3.08
2018-09-30T10:51:57.028Z,2.80
2018-09-30T10:54:28.635Z,3.08
2018-09-30T10:56:59.991Z,3.27
2018-09-30T10:59:31.367Z,4.30
2018-09-30T11:02:04.015Z,2.77
2018-09-30T11:04:35.369Z,2.83
2018-09-30T11:07:07.245Z,3.02
2018-09-30T11:09:38.441Z,3.00
2018-09-30T11:12:09.912Z,2.98
2018-09-30T11:14:41.041Z,2.45
2018-09-30T11:17:12.500Z,2.15
2018-09-30T11:19:43.797Z,2.58
2018-09-30T11:22:15.046Z,2.83
2018-09-30T11:24:46.389Z,2.60
2018-09-30T11:27:17.531Z,2.30
2018-09-30T11:29:48.676Z,1.90
2018-09-30T11:32:20.144Z,2.12
2018-09-30T11:34:51.381Z,2.17
2018-09-30T11:37:22.826Z,2.30
2018-09-30T11:39:54.364Z,2.98
2018-09-30T11:42:25.601Z,2.30
2018-09-30T11:44:57.056Z,2.67
2018-09-30T11:47:28.219Z,2.87
2018-09-30T11:49:59.494Z,2.50
2018-09-30T11:52:30.809Z,2.60
2018-09-30T11:55:03.356Z,2.80
2018-09-30T11:57:34.810Z,2.70
2018-09-30T12:00:06.485Z,2.67
2018-09-30T12:02:37.789Z,2.90
2018-09-30T12:05:08.921Z,3.00
2018-09-30T12:07:40.409Z,2.67
2018-09-30T12:10:11.703Z,3.30
2018-09-30T12:12:42.907Z,2.85
2018-09-30T12:15:16.019Z,2.98
2018-09-30T12:17:47.940Z,2.67
2018-09-30T12:20:19.190Z,2.55
2018-09-30T12:22:50.496Z,2.20
2018-09-30T12:25:21.724Z,2.60
2018-09-30T12:31:04.894Z,2.50
2018-09-30T12:36:39.958Z,2.65
2018-09-30T12:39:11.726Z,2.50
2018-09-30T12:41:43.297Z,2.62
2018-09-30T12:44:14.686Z,2.67
2018-09-30T12:46:45.845Z,3.12
2018-09-30T12:49:17.262Z,3.20
2018-09-30T12:51:48.432Z,3.58
2018-09-30T12:54:19.809Z,3.20
2018-09-30T12:56:51.426Z,3.40
2018-09-30T12:59:22.674Z,3.47
2018-09-30T13:01:54.034Z,3.55
2018-09-30T13:04:25.699Z,3.75
2018-09-30T13:06:56.828Z,3.70
2018-09-30T13:09:28.125Z,3.50
2018-09-30T13:11:59.343Z,3.60
2018-09-30T13:14:30.645Z,4.08
2018-09-30T13:17:01.837Z,4.40
2018-09-30T13:19:33.232Z,4.40
2018-09-30T13:22:05.202Z,4.72
2018-09-30T13:24:37.804Z,4.75
2018-09-30T13:27:08.439Z,4.53
2018-09-30T13:29:39.255Z,3.60
2018-09-30T13:32:09.845Z,3.50
2018-09-30T13:34:40.886Z,3.13
2018-09-30T13:37:11.528Z,3.50
2018-09-30T13:39:42.044Z,2.77
2018-09-30T13:42:13.272Z,2.60
2018-09-30T13:44:44.093Z,2.47
2018-09-30T13:47:14.662Z,2.13
2018-09-30T13:49:45.423Z,2.03
2018-09-30T13:52:16.231Z,1.97
2018-09-30T13:54:47.305Z,1.70
2018-09-30T13:57:18.546Z,1.63
2018-09-30T13:59:49.109Z,1.77
2018-09-30T14:02:19.743Z,1.90
2018-09-30T14:04:50.424Z,1.90
2018-09-30T14:07:21.119Z,1.70
2018-09-30T14:09:52.126Z,1.70
2018-09-30T14:12:22.753Z,1.80
2018-09-30T14:14:53.385Z,1.47
2018-09-30T14:17:24.369Z,1.50
2018-09-30T14:19:55.293Z,1.80
2018-09-30T14:22:26.429Z,1.63
2018-09-30T14:24:57.161Z,1.80
2018-09-30T14:27:27.996Z,1.53
2018-09-30T14:29:58.715Z,1.87
2018-09-30T14:32:29.521Z,2.00
2018-09-30T14:35:00.246Z,1.67
2018-09-30T14:37:31.519Z,1.90
2018-09-30T14:40:02.777Z,1.90
2018-09-30T14:42:33.597Z,1.83
2018-09-30T14:45:04.505Z,2.07
2018-09-30T14:47:35.243Z,1.87
2018-09-30T14:50:06.361Z,1.90
2018-09-30T14:52:37.065Z,2.30
2018-09-30T14:55:08.029Z,2.00
2018-09-30T14:57:38.654Z,2.53
2018-09-30T15:00:09.337Z,2.03
2018-09-30T15:02:40.039Z,2.33
2018-09-30T15:05:10.819Z,2.00
2018-09-30T15:07:41.451Z,2.20
2018-09-30T15:10:12.141Z,1.87
2018-09-30T15:12:42.707Z,2.00
2018-09-30T15:15:13.443Z,1.53
2018-09-30T15:17:44.073Z,2.27
2018-09-30T15:20:14.488Z,2.30
2018-09-30T15:22:45.099Z,1.73
2018-09-30T15:25:15.724Z,2.20
2018-09-30T15:27:46.219Z,2.40
2018-09-30T15:30:16.819Z,2.33
2018-09-30T15:32:48.090Z,2.10
2018-09-30T15:35:18.638Z,1.80
2018-09-30T15:37:49.707Z,2.20
2018-09-30T15:40:20.489Z,1.93
2018-09-30T15:42:51.268Z,2.37
2018-09-30T15:45:22.492Z,2.10
2018-09-30T15:47:53.350Z,2.00
2018-09-30T15:50:23.998Z,2.20
2018-09-30T15:52:54.902Z,1.53
2018-09-30T15:55:26.260Z,2.10
2018-09-30T15:57:56.843Z,1.97
2018-09-30T16:00:28.001Z,1.80
2018-09-30T16:02:58.545Z,1.90
2018-09-30T16:05:29.625Z,1.90
2018-09-30T16:08:00.489Z,2.00
2018-09-30T16:10:31.459Z,2.03
2018-09-30T16:13:02.378Z,2.20
2018-09-30T16:15:33.278Z,2.03
2018-09-30T16:18:13.158Z,2.20
2018-09-30T16:20:43.979Z,1.90
2018-09-30T16:24:02.922Z,2.17
2018-09-30T16:26:33.549Z,1.97
2018-09-30T16:29:04.235Z,2.50
2018-09-30T16:31:34.871Z,2.50
2018-09-30T16:34:06.033Z,2.83
2018-09-30T16:36:36.666Z,2.97
2018-09-30T16:39:09.670Z,2.90
2018-09-30T16:41:40.478Z,2.83
2018-09-30T16:44:11.488Z,3.07
2018-09-30T16:46:42.120Z,3.50
2018-09-30T16:49:13.289Z,3.33
2018-09-30T16:51:44.251Z,2.97
2018-09-30T16:54:14.720Z,3.20
2018-09-30T16:56:45.548Z,3.53
2018-09-30T16:59:16.421Z,3.33
2018-09-30T17:01:47.177Z,2.73
2018-09-30T17:04:17.791Z,2.87
2018-09-30T17:06:48.612Z,3.13
2018-09-30T17:09:19.876Z,3.30
2018-09-30T17:11:50.496Z,3.00
2018-09-30T17:14:21.492Z,3.67
2018-09-30T17:16:52.197Z,3.47
2018-09-30T17:19:23.055Z,3.77
2018-09-30T17:21:53.900Z,3.63
2018-09-30T17:24:24.699Z,3.97
2018-09-30T17:26:55.628Z,3.37
2018-09-30T17:29:26.382Z,3.50
2018-09-30T17:31:57.199Z,3.30
2018-09-30T17:34:28.130Z,3.37
2018-09-30T17:36:59.584Z,3.77
2018-09-30T17:39:30.237Z,4.00
2018-09-30T17:42:01.074Z,3.43
2018-09-30T17:44:31.969Z,3.77
2018-09-30T17:47:02.768Z,3.90
2018-09-30T17:49:33.528Z,3.70
2018-09-30T17:52:04.462Z,3.90
2018-09-30T17:54:35.036Z,4.00
2018-09-30T17:57:05.807Z,3.83
2018-09-30T17:59:36.471Z,4.63
2018-09-30T18:02:07.435Z,3.40
2018-09-30T18:04:38.220Z,3.87
2018-09-30T18:07:09.401Z,4.00
2018-09-30T18:09:40.157Z,3.50
2018-09-30T18:12:10.695Z,4.30
2018-09-30T18:14:41.422Z,4.30
2018-09-30T18:17:12.607Z,4.80
2018-09-30T18:19:43.656Z,4.53
2018-09-30T18:22:14.530Z,3.83
2018-09-30T18:24:45.412Z,3.67
2018-09-30T18:27:16.494Z,3.70
2018-09-30T18:29:47.749Z,4.03
2018-09-30T18:32:19.301Z,4.33
2018-09-30T18:34:50.161Z,4.23
2018-09-30T18:37:20.841Z,3.97
2018-09-30T18:39:51.928Z,3.40
2018-09-30T18:42:23.467Z,4.03
2018-09-30T18:44:54.857Z,3.73
2018-09-30T18:47:25.866Z,4.03
2018-09-30T18:49:57.427Z,4.70
2018-09-30T18:52:28.715Z,4.30
2018-09-30T18:55:00.032Z,4.27
2018-09-30T18:57:32.923Z,4.20
2018-09-30T19:00:05.489Z,3.57
2018-09-30T19:02:36.522Z,3.97
2018-09-30T19:05:08.724Z,4.77
2018-09-30T19:07:39.843Z,4.10
2018-09-30T19:10:11.089Z,3.97
2018-09-30T19:12:42.104Z,3.83
2018-09-30T19:15:13.622Z,4.17
2018-09-30T19:17:45.228Z,3.93
2018-09-30T19:20:16.292Z,4.40
2018-09-30T19:22:47.149Z,3.90
2018-09-30T19:25:17.868Z,4.03
2018-09-30T19:27:48.548Z,4.00
2018-09-30T19:30:19.440Z,4.17
2018-09-30T19:32:50.320Z,4.43
2018-09-30T19:35:21.118Z,4.20
2018-09-30T19:37:52.089Z,3.77
2018-09-30T19:40:22.923Z,3.87
2018-09-30T19:42:53.604Z,3.83
2018-09-30T19:45:24.445Z,4.07
2018-09-30T19:47:55.452Z,3.90
2018-09-30T19:50:26.159Z,3.83
2018-09-30T19:52:56.864Z,4.23
2018-09-30T19:55:27.497Z,3.43
2018-09-30T19:57:58.116Z,3.13
2018-09-30T20:00:29.260Z,4.33
2018-09-30T20:02:59.946Z,3.70
2018-09-30T20:05:30.570Z,3.50
2018-09-30T20:08:01.302Z,4.00
2018-09-30T20:10:32.087Z,3.70
2018-09-30T20:13:03.301Z,3.50
2018-09-30T20:15:34.016Z,3.67
2018-09-30T20:18:04.930Z,3.03
2018-09-30T20:20:35.763Z,3.70
2018-09-30T20:23:06.625Z,3.40
2018-09-30T20:25:37.166Z,3.60
2018-09-30T20:28:08.314Z,3.67
2018-09-30T20:30:39.543Z,3.53
2018-09-30T20:33:10.314Z,3.50
2018-09-30T20:35:41.122Z,3.43
2018-09-30T20:38:12.023Z,3.27
2018-09-30T20:40:43.084Z,3.50
2018-09-30T20:43:14.009Z,3.00
2018-09-30T20:45:44.760Z,2.83
2018-09-30T20:48:15.414Z,3.30
2018-09-30T20:50:45.967Z,3.23
2018-09-30T20:53:16.846Z,3.20
2018-09-30T20:55:47.507Z,2.83
2018-09-30T20:58:18.512Z,3.37
2018-09-30T21:00:49.350Z,2.87
2018-09-30T21:03:20.193Z,3.10
2018-09-30T21:06:30.826Z,3.07
2018-09-30T21:09:01.592Z,2.90
2018-09-30T21:11:32.416Z,2.57
2018-09-30T21:14:04.056Z,2.53
2018-09-30T21:16:34.952Z,3.27
2018-09-30T21:19:06.082Z,1.77
2018-09-30T21:21:36.824Z,2.17
2018-09-30T21:24:07.428Z,2.20
2018-09-30T21:26:38.446Z,2.10
2018-09-30T21:29:09.301Z,1.87
2018-09-30T21:31:39.948Z,2.00
2018-09-30T21:34:10.689Z,2.10
2018-09-30T21:36:41.457Z,2.10
2018-09-30T21:39:12.566Z,1.93
2018-09-30T21:41:43.628Z,2.00
2018-09-30T21:44:14.162Z,1.90
2018-09-30T21:46:44.937Z,2.30
2018-09-30T21:49:15.649Z,1.93
2018-09-30T21:51:46.356Z,1.80
2018-09-30T21:54:17.047Z,1.63
2018-09-30T21:56:48.905Z,2.23
2018-09-30T21:59:19.606Z,1.70
2018-09-30T22:01:50.657Z,1.70
2018-09-30T22:04:21.391Z,2.10
2018-09-30T22:06:51.940Z,2.70
2018-09-30T22:09:22.782Z,2.30
2018-09-30T22:11:53.560Z,2.20
2018-09-30T22:14:24.117Z,2.53
2018-09-30T22:16:54.776Z,3.00
2018-09-30T22:19:25.544Z,2.63
2018-09-30T22:21:56.540Z,3.27
2018-09-30T22:24:27.497Z,3.00
2018-09-30T22:26:58.184Z,3.00
2018-09-30T22:29:29.080Z,3.60
2018-09-30T22:31:59.877Z,3.20
2018-09-30T22:34:30.638Z,2.90
2018-09-30T22:37:01.441Z,2.80
2018-09-30T22:39:31.795Z,2.57
2018-09-30T22:42:02.433Z,2.60
2018-09-30T22:44:33.275Z,2.33
2018-09-30T22:47:04.001Z,3.10
2018-09-30T22:49:34.552Z,2.90
2018-09-30T22:52:05.208Z,2.67
2018-09-30T22:54:35.744Z,2.57
2018-09-30T22:57:06.703Z,2.50
2018-09-30T22:59:37.577Z,2.43
2018-09-30T23:02:08.508Z,2.90
2018-09-30T23:04:39.165Z,2.50
2018-09-30T23:07:16.593Z,2.47
2018-09-30T23:09:47.797Z,2.40
2018-09-30T23:12:18.534Z,2.60
2018-09-30T23:14:49.185Z,2.87
2018-09-30T23:17:19.791Z,2.20
2018-09-30T23:19:50.552Z,1.83
2018-09-30T23:22:21.135Z,2.77
2018-09-30T23:24:51.851Z,2.60
2018-09-30T23:27:22.960Z,2.47
2018-09-30T23:29:53.616Z,2.83
2018-09-30T23:32:25.460Z,2.50
2018-09-30T23:34:56.058Z,2.73
2018-09-30T23:37:26.817Z,2.10
2018-09-30T23:39:57.781Z,2.73
2018-09-30T23:42:28.293Z,2.83
2018-09-30T23:44:58.906Z,2.33
2018-09-30T23:47:29.584Z,2.70
2018-09-30T23:50:00.646Z,2.23
2018-09-30T23:52:31.223Z,2.93
2018-09-30T23:55:01.783Z,2.80
2018-09-30T23:57:32.322Z,2.70
